map of BYJ home
BYJ - Airport
Location
City:  Beja, Beja, Portugal
Name:Beja Airport
Old (Alt.):Air Base No. 11
ICAO:LPBJ
IATA:BYJ

Details
Type:Airport (Aerodrome, Airfield)
Use:Public/Civil, Military
Latitude:3804'44"N (38.078889)
Longitude:755'57"W (-7.932499)
Elevation:636 ft (194 m)
Variation:1.69W (WMM2015v2 magnetic declination)
0.16 annual change
Runways:2
Longest:11319 × 197 ft (3450 × 60 m), paved

Time
Time Zone:UTC+0 (DST+1)
Local Time:

Weather
METAR:LPBJ 041400Z 01004KT 320V060 CAVOK 14/M02 Q1029
TAF:LPBJ 041113Z 0412/0512 06005KT CAVOK
TEMPO 0417/0420 35008KT
BECMG 0500/0502 VRB02KT

Related Locations
Nearby:
Farthest:NPL: 12308 mi / 19808 km
New Plymouth, TKI, NZ

Find:

   beyond  
but within

Other Information
Maps:
NOTAMs:
Links:
Sources:

  
  • flag of Portugal
  

Sectional Chart

Flight Planning
at skyvector.com

Satellite Image

Google Maps Satellite view

 

Copyright © 2004-2019 Karl L. Swartz. All rights reserved.
The Great Circle Mapper name and logo are trademarks of the Great Circle Mapper.
All other trademarks mentioned herein belong to their respective owners.
Please see credits for attibutions and further copyright information.

  Follow gcmap on Facebook Follow gcmap on Twitter GCmap on LinkedIn

hCard Microformat

Geo Microformat